createdAt,value
2018-09-10T00:00:47.568Z,102363.95
2018-09-10T00:03:50.836Z,102365.11
2018-09-10T00:06:54.148Z,102361.48
2018-09-10T00:09:57.290Z,102363.95
2018-09-10T00:13:01.670Z,102362.85
2018-09-10T00:16:04.955Z,102356.36
2018-09-10T00:19:08.151Z,102353.19
2018-09-10T00:22:11.504Z,102354.72
2018-09-10T00:25:15.809Z,102352.18
2018-09-10T00:28:19.084Z,102353.69
2018-09-10T00:31:23.429Z,102351.86
2018-09-10T00:34:26.703Z,102353.29
2018-09-10T00:37:30.025Z,102356.16
2018-09-10T00:40:33.420Z,102351.14
2018-09-10T00:43:36.687Z,102357.58
2018-09-10T00:46:40.099Z,102362.20
2018-09-10T00:49:44.552Z,102356.68
2018-09-10T00:52:47.684Z,102357.01
2018-09-10T00:55:50.911Z,102354.64
2018-09-10T00:58:54.283Z,102355.20
2018-09-10T01:01:57.487Z,102356.35
2018-09-10T01:05:00.751Z,102357.06
2018-09-10T01:08:04.106Z,102360.80
2018-09-10T01:11:07.243Z,102362.68
2018-09-10T01:14:10.479Z,102361.97
2018-09-10T01:17:14.848Z,102363.37
2018-09-10T01:20:18.163Z,102361.21
2018-09-10T01:23:21.524Z,102361.60
2018-09-10T01:26:24.864Z,102358.23
2018-09-10T01:29:28.093Z,102360.65
2018-09-10T01:32:31.400Z,102363.56
2018-09-10T01:35:34.684Z,102370.45
2018-09-10T01:38:37.916Z,102364.71
2018-09-10T01:41:41.183Z,102368.51
2018-09-10T01:44:44.868Z,102367.01
2018-09-10T01:47:48.060Z,102360.77
2018-09-10T01:50:51.405Z,102363.16
2018-09-10T01:53:54.669Z,102358.69
2018-09-10T01:56:57.969Z,102363.21
2018-09-10T02:00:01.239Z,102368.72
2018-09-10T02:03:04.544Z,102375.00
2018-09-10T02:06:07.795Z,102383.54
2018-09-10T02:09:11.052Z,102379.50
2018-09-10T02:12:19.817Z,102377.65
2018-09-10T02:15:23.095Z,102381.63
2018-09-10T02:18:26.470Z,102375.88
2018-09-10T02:21:29.785Z,102375.23
2018-09-10T02:24:32.987Z,102375.55
2018-09-10T02:27:36.255Z,102367.16
2018-09-10T02:30:39.482Z,102360.41
2018-09-10T02:33:42.792Z,102361.91
2018-09-10T02:36:47.007Z,102366.10
2018-09-10T02:39:51.351Z,102367.44
2018-09-10T02:42:54.769Z,102357.97
2018-09-10T02:45:57.992Z,102368.00
2018-09-10T02:49:01.209Z,102368.57
2018-09-10T02:52:04.661Z,102367.78
2018-09-10T02:55:08.959Z,102365.67
2018-09-10T02:58:12.232Z,102370.85
2018-09-10T03:01:16.588Z,102377.17
2018-09-10T03:04:19.835Z,102377.64
2018-09-10T03:07:23.147Z,102377.93
2018-09-10T03:10:26.291Z,102380.54
2018-09-10T03:13:29.633Z,102380.69
2018-09-10T03:16:32.944Z,102385.32
2018-09-10T03:19:36.275Z,102393.92
2018-09-10T03:22:39.528Z,102392.59
2018-09-10T03:25:42.704Z,102392.93
2018-09-10T03:28:46.151Z,102399.14
2018-09-10T03:31:49.400Z,102390.11
2018-09-10T03:34:53.820Z,102380.94
2018-09-10T03:37:57.042Z,102383.07
2018-09-10T03:41:00.338Z,102381.83
2018-09-10T03:44:03.615Z,102390.29
2018-09-10T03:47:07.184Z,102388.94
2018-09-10T03:50:10.428Z,102393.19
2018-09-10T03:53:13.726Z,102393.68
2018-09-10T03:56:18.058Z,102395.21
2018-09-10T03:59:21.383Z,102389.56
2018-09-10T04:02:24.639Z,102401.08
2018-09-10T04:05:27.970Z,102403.39
2018-09-10T04:08:31.240Z,102397.94
2018-09-10T04:11:34.657Z,102403.31
2018-09-10T04:14:37.987Z,102401.30
2018-09-10T04:17:41.288Z,102405.77
2018-09-10T04:20:45.074Z,102406.49
2018-09-10T04:23:48.478Z,102405.20
2018-09-10T04:26:51.997Z,102402.20
2018-09-10T04:29:56.276Z,102407.39
2018-09-10T04:32:59.456Z,102411.36
2018-09-10T04:36:02.849Z,102411.56
2018-09-10T04:39:07.547Z,102416.06
2018-09-10T04:42:10.936Z,102413.58
2018-09-10T04:45:14.220Z,102422.01
2018-09-10T04:48:17.600Z,102428.26
2018-09-10T04:51:21.370Z,102424.93
2018-09-10T04:54:28.278Z,102415.07
2018-09-10T04:57:31.551Z,102413.42
2018-09-10T05:00:34.871Z,102424.86
2018-09-10T05:03:38.051Z,102420.44
2018-09-10T05:06:41.362Z,102422.08
2018-09-10T05:09:44.544Z,102424.00
2018-09-10T05:12:48.023Z,102422.54
2018-09-10T05:15:51.254Z,102421.43
2018-09-10T05:18:54.490Z,102432.15
2018-09-10T05:21:57.901Z,102439.10
2018-09-10T05:25:01.190Z,102444.66
2018-09-10T05:28:04.499Z,102451.16
2018-09-10T05:31:07.774Z,102448.26
2018-09-10T05:34:11.084Z,102445.17
2018-09-10T05:37:14.525Z,102448.79
2018-09-10T05:40:17.994Z,102467.09
2018-09-10T05:43:21.273Z,102481.16
2018-09-10T05:46:24.572Z,102475.40
2018-09-10T05:49:27.765Z,102478.30
2018-09-10T05:52:31.079Z,102479.51
2018-09-10T05:55:34.375Z,102479.50
2018-09-10T05:58:37.755Z,102486.35
2018-09-10T06:01:41.127Z,102491.85
2018-09-10T06:04:44.649Z,102500.45
2018-09-10T06:07:49.687Z,102512.66
2018-09-10T06:10:52.988Z,102510.65
2018-09-10T06:13:56.263Z,102502.85
2018-09-10T06:16:59.674Z,102504.92
2018-09-10T06:20:02.959Z,102507.09
2018-09-10T06:23:06.291Z,102504.05
2018-09-10T06:26:09.799Z,102502.29
2018-09-10T06:29:13.078Z,102489.21
2018-09-10T06:32:17.759Z,102491.55
2018-09-10T06:35:21.003Z,102494.57
2018-09-10T06:38:24.434Z,102493.41
2018-09-10T06:41:27.681Z,102490.09
2018-09-10T06:44:30.908Z,102490.21
2018-09-10T06:47:34.284Z,102494.61
2018-09-10T06:50:37.554Z,102494.67
2018-09-10T06:53:40.739Z,102486.28
2018-09-10T06:56:44.095Z,102490.22
2018-09-10T06:59:48.656Z,102493.33
2018-09-10T07:02:52.121Z,102498.02
2018-09-10T07:05:55.367Z,102500.96
2018-09-10T07:08:58.583Z,102495.27
2018-09-10T07:12:01.912Z,102496.62
2018-09-10T07:15:05.429Z,102497.77
2018-09-10T07:18:08.717Z,102496.59
2018-09-10T07:21:12.023Z,102494.72
2018-09-10T07:24:15.516Z,102492.97
2018-09-10T07:27:19.867Z,102499.39
2018-09-10T07:30:23.083Z,102496.82
2018-09-10T07:33:26.324Z,102491.88
2018-09-10T07:36:29.621Z,102490.88
2018-09-10T07:39:32.889Z,102494.30
2018-09-10T07:42:36.104Z,102494.18
2018-09-10T07:45:39.389Z,102502.65
2018-09-10T07:48:42.692Z,102495.50
2018-09-10T07:51:46.985Z,102501.26
2018-09-10T07:54:50.228Z,102510.23
2018-09-10T07:57:53.471Z,102505.09
2018-09-10T08:00:56.705Z,102509.23
2018-09-10T08:04:00.013Z,102499.23
2018-09-10T08:07:03.290Z,102504.61
2018-09-10T08:10:06.648Z,102498.60
2018-09-10T08:13:09.859Z,102495.35
2018-09-10T08:16:13.152Z,102496.27
2018-09-10T08:19:17.326Z,102498.49
2018-09-10T08:22:20.615Z,102500.37
2018-09-10T08:25:23.810Z,102505.51
2018-09-10T08:28:27.084Z,102500.47
2018-09-10T08:31:30.390Z,102502.08
2018-09-10T08:34:33.661Z,102497.83
2018-09-10T08:37:36.875Z,102498.58
2018-09-10T08:40:40.146Z,102496.39
2018-09-10T08:43:43.466Z,102497.25
2018-09-10T08:46:48.626Z,102493.30
2018-09-10T08:49:51.946Z,102491.61
2018-09-10T08:52:55.102Z,102484.18
2018-09-10T08:55:58.502Z,102485.62
2018-09-10T08:59:01.708Z,102488.21
2018-09-10T09:02:04.997Z,102483.37
2018-09-10T09:05:08.303Z,102478.69
2018-09-10T09:08:11.607Z,102474.51
2018-09-10T09:11:14.909Z,102470.99
2018-09-10T09:14:19.311Z,102474.78
2018-09-10T09:17:22.647Z,102467.94
2018-09-10T09:20:25.824Z,102469.18
2018-09-10T09:23:29.294Z,102474.72
2018-09-10T09:26:32.506Z,102482.08
2018-09-10T09:29:35.849Z,102482.66
2018-09-10T09:32:41.119Z,102483.43
2018-09-10T09:35:49.685Z,102483.02
2018-09-10T09:38:59.383Z,102479.87
2018-09-10T09:42:08.127Z,102478.09
2018-09-10T09:45:17.708Z,102475.68
2018-09-10T09:48:21.104Z,102477.64
2018-09-10T09:51:24.427Z,102472.06
2018-09-10T09:54:27.678Z,102466.73
2018-09-10T09:57:31.220Z,102458.67
2018-09-10T10:00:40.205Z,102459.01
2018-09-10T10:03:48.858Z,102460.23
2018-09-10T10:06:52.252Z,102452.63
2018-09-10T10:09:57.831Z,102440.20
2018-09-10T10:13:01.487Z,102441.78
2018-09-10T10:16:04.812Z,102438.42
2018-09-10T10:19:08.107Z,102437.36
2018-09-10T10:22:11.438Z,102437.94
2018-09-10T10:25:14.620Z,102439.84
2018-09-10T10:28:18.621Z,102440.16
2018-09-10T10:31:21.888Z,102437.56
2018-09-10T10:34:25.158Z,102429.21
2018-09-10T10:37:28.383Z,102424.26
2018-09-10T10:40:31.850Z,102422.70
2018-09-10T10:43:35.936Z,102415.34
2018-09-10T10:46:40.676Z,102412.09
2018-09-10T10:49:43.904Z,102411.52
2018-09-10T10:52:47.256Z,102409.86
2018-09-10T10:55:50.813Z,102408.40
2018-09-10T10:58:54.027Z,102400.78
2018-09-10T11:01:57.404Z,102398.36
2018-09-10T11:05:00.593Z,102404.69
2018-09-10T11:08:04.835Z,102406.28
2018-09-10T11:11:07.997Z,102405.03
2018-09-10T11:14:12.253Z,102402.76
2018-09-10T11:17:15.595Z,102397.01
2018-09-10T11:20:19.978Z,102390.99
2018-09-10T11:23:23.337Z,102391.60
2018-09-10T11:26:26.462Z,102390.79
2018-09-10T11:29:29.780Z,102385.70
2018-09-10T11:32:33.116Z,102388.06
2018-09-10T11:35:36.455Z,102384.81
2018-09-10T11:38:40.089Z,102382.43
2018-09-10T11:41:43.391Z,102385.17
2018-09-10T11:44:46.656Z,102388.03
2018-09-10T11:47:49.951Z,102384.06
2018-09-10T11:50:53.357Z,102376.38
2018-09-10T11:53:57.714Z,102375.15
2018-09-10T11:57:00.944Z,102365.99
2018-09-10T12:00:08.370Z,102368.37
2018-09-10T12:03:11.639Z,102364.40
2018-09-10T12:06:14.830Z,102367.23
2018-09-10T12:09:18.155Z,102360.27
2018-09-10T12:12:21.399Z,102354.26
2018-09-10T12:15:24.779Z,102339.73
2018-09-10T12:18:29.321Z,102326.74
2018-09-10T12:21:32.754Z,102315.40
2018-09-10T12:24:36.204Z,102319.17
2018-09-10T12:27:39.623Z,102316.79
2018-09-10T12:30:43.028Z,102315.35
2018-09-10T12:33:46.404Z,102312.61
2018-09-10T12:36:50.810Z,102303.10
2018-09-10T12:39:54.160Z,102303.07
2018-09-10T12:42:58.089Z,102304.23
2018-09-10T12:46:01.433Z,102292.66
2018-09-10T12:49:04.657Z,102289.60
2018-09-10T12:52:07.964Z,102288.30
2018-09-10T12:55:11.329Z,102287.22
2018-09-10T12:58:14.606Z,102291.36
2018-09-10T13:01:17.887Z,102283.54
2018-09-10T13:04:21.171Z,102285.71
2018-09-10T13:07:24.387Z,102285.46
2018-09-10T13:10:28.247Z,102285.09
2018-09-10T13:13:31.484Z,102278.59
2018-09-10T13:16:34.756Z,102290.33
2018-09-10T13:19:37.986Z,102277.19
2018-09-10T13:22:41.630Z,102273.41
2018-09-10T13:25:44.887Z,102268.23
2018-09-10T13:28:49.100Z,102258.02
2018-09-10T13:31:52.448Z,102254.82
2018-09-10T13:34:55.812Z,102249.49
2018-09-10T13:37:59.117Z,102243.83
2018-09-10T13:41:02.499Z,102253.79
2018-09-10T13:44:05.737Z,102252.09
2018-09-10T13:47:09.328Z,102250.41
2018-09-10T13:50:12.653Z,102252.13
2018-09-10T13:53:15.921Z,102253.38
2018-09-10T13:56:20.304Z,102253.09
2018-09-10T13:59:23.538Z,102250.50
2018-09-10T14:02:26.836Z,102246.23
2018-09-10T14:05:31.175Z,102239.30
2018-09-10T14:08:34.565Z,102239.27
2018-09-10T14:11:38.269Z,102236.75
2018-09-10T14:14:41.550Z,102237.16
2018-09-10T14:17:44.734Z,102237.70
2018-09-10T14:20:48.546Z,102237.98
2018-09-10T14:23:51.787Z,102237.03
2018-09-10T14:26:55.084Z,102234.74
2018-09-10T14:29:58.419Z,102227.83
2018-09-10T14:33:01.743Z,102229.00
2018-09-10T14:36:05.068Z,102221.80
2018-09-10T14:39:08.975Z,102226.44
2018-09-10T14:42:12.293Z,102219.91
2018-09-10T14:45:15.565Z,102225.93
2018-09-10T14:48:19.500Z,102223.14
2018-09-10T14:51:22.895Z,102227.41
2018-09-10T14:54:26.135Z,102220.68
2018-09-10T14:57:29.342Z,102236.45
2018-09-10T15:00:32.648Z,102236.37
2018-09-10T15:03:35.910Z,102235.72
2018-09-10T15:06:40.165Z,102232.83
2018-09-10T15:09:43.409Z,102232.36
2018-09-10T15:12:48.730Z,102226.60
2018-09-10T15:15:52.031Z,102232.83
2018-09-10T15:18:55.526Z,102233.52
2018-09-10T15:21:58.931Z,102229.66
2018-09-10T15:25:04.279Z,102222.97
2018-09-10T15:28:07.568Z,102219.89
2018-09-10T15:31:10.847Z,102225.83
2018-09-10T15:34:14.155Z,102229.08
2018-09-10T15:37:17.607Z,102227.38
2018-09-10T15:40:21.997Z,102230.84
2018-09-10T15:43:25.276Z,102222.08
2018-09-10T15:46:28.573Z,102220.99
2018-09-10T15:49:31.922Z,102224.83
2018-09-10T15:52:35.319Z,102218.79
2018-09-10T15:55:38.826Z,102221.05
2018-09-10T15:58:43.087Z,102220.91
2018-09-10T16:01:46.391Z,102216.53
2018-09-10T16:04:49.825Z,102224.32
2018-09-10T16:07:53.094Z,102230.11
2018-09-10T16:10:56.296Z,102221.62
2018-09-10T16:13:59.571Z,102223.32
2018-09-10T16:17:02.936Z,102223.40
2018-09-10T16:20:06.705Z,102225.78
2018-09-10T16:23:10.154Z,102227.27
2018-09-10T16:26:13.469Z,102223.51
2018-09-10T16:29:16.696Z,102218.77
2018-09-10T16:32:20.904Z,102224.01
2018-09-10T16:35:24.397Z,102223.66
2018-09-10T16:38:27.575Z,102230.22
2018-09-10T16:41:30.946Z,102230.07
2018-09-10T16:44:35.240Z,102230.88
2018-09-10T16:47:38.527Z,102232.53
2018-09-10T16:50:41.994Z,102240.14
2018-09-10T16:53:45.387Z,102243.16
2018-09-10T16:56:49.224Z,102245.02
2018-09-10T16:59:53.636Z,102244.10
2018-09-10T17:02:57.007Z,102243.83
2018-09-10T17:06:00.371Z,102250.78
2018-09-10T17:09:06.327Z,102256.36
2018-09-10T17:12:09.613Z,102256.04
2018-09-10T17:15:12.786Z,102257.47
2018-09-10T17:18:16.086Z,102257.97
2018-09-10T17:21:20.592Z,102258.84
2018-09-10T17:24:23.901Z,102252.04
2018-09-10T17:27:27.084Z,102251.41
2018-09-10T17:30:30.592Z,102248.82
2018-09-10T17:33:33.786Z,102247.43
2018-09-10T17:36:37.284Z,102247.18
2018-09-10T17:39:40.590Z,102244.28
2018-09-10T17:42:43.746Z,102238.50
2018-09-10T17:45:46.970Z,102237.70
2018-09-10T17:48:51.144Z,102243.30
2018-09-10T17:51:54.548Z,102245.05
2018-09-10T17:54:57.679Z,102246.07
2018-09-10T17:58:02.105Z,102242.69
2018-09-10T18:01:07.367Z,102250.94
2018-09-10T18:04:10.732Z,102246.61
2018-09-10T18:07:14.121Z,102246.21
2018-09-10T18:10:17.459Z,102254.17
2018-09-10T18:13:20.942Z,102266.30
2018-09-10T18:16:24.157Z,102265.43
2018-09-10T18:19:27.667Z,102260.16
2018-09-10T18:22:31.049Z,102263.39
2018-09-10T18:25:34.292Z,102265.66
2018-09-10T18:28:37.860Z,102264.31
2018-09-10T18:31:41.220Z,102270.55
2018-09-10T18:34:44.517Z,102274.84
2018-09-10T18:37:47.865Z,102281.24
2018-09-10T18:40:51.160Z,102285.33
2018-09-10T18:43:55.205Z,102289.11
2018-09-10T18:46:58.983Z,102295.97
2018-09-10T18:50:02.321Z,102297.01
2018-09-10T18:53:06.753Z,102302.01
2018-09-10T18:56:10.363Z,102308.79
2018-09-10T18:59:13.763Z,102312.58
2018-09-10T19:02:16.943Z,102313.11
2018-09-10T19:05:20.293Z,102320.39
2018-09-10T19:08:23.629Z,102319.90
2018-09-10T19:11:27.032Z,102316.94
2018-09-10T19:14:31.372Z,102328.59
2018-09-10T19:17:35.365Z,102332.49
2018-09-10T19:20:38.812Z,102341.01
2018-09-10T19:23:42.007Z,102342.57
2018-09-10T19:26:45.365Z,102344.59
2018-09-10T19:29:48.988Z,102347.50
2018-09-10T19:32:52.231Z,102352.17
2018-09-10T19:35:55.576Z,102355.31
2018-09-10T19:38:58.904Z,102357.36
2018-09-10T19:42:02.115Z,102364.07
2018-09-10T19:45:06.315Z,102365.22
2018-09-10T19:48:09.598Z,102373.43
2018-09-10T19:51:12.915Z,102381.92
2018-09-10T19:54:16.239Z,102386.22
2018-09-10T19:57:19.538Z,102389.83
2018-09-10T20:00:22.807Z,102393.46
2018-09-10T20:03:26.222Z,102395.85
2018-09-10T20:06:29.555Z,102396.92
2018-09-10T20:09:32.845Z,102396.09
2018-09-10T20:12:36.648Z,102402.45
2018-09-10T20:15:40.008Z,102414.61
2018-09-10T20:18:43.279Z,102421.77
2018-09-10T20:21:46.627Z,102424.41
2018-09-10T20:24:49.796Z,102431.87
2018-09-10T20:27:52.995Z,102436.12
2018-09-10T20:30:56.338Z,102439.76
2018-09-10T20:34:04.703Z,102439.55
2018-09-10T20:37:08.380Z,102441.11
2018-09-10T20:40:11.739Z,102439.32
2018-09-10T20:43:15.035Z,102446.14
2018-09-10T20:46:18.318Z,102446.84
2018-09-10T20:49:21.607Z,102446.18
2018-09-10T20:52:24.752Z,102446.07
2018-09-10T20:55:28.101Z,102448.12
2018-09-10T20:58:31.317Z,102443.82
2018-09-10T21:01:34.541Z,102443.99
2018-09-10T21:04:38.847Z,102449.16
2018-09-10T21:07:42.211Z,102455.47
2018-09-10T21:10:45.257Z,102454.58
2018-09-10T21:13:48.583Z,102458.20
2018-09-10T21:16:51.821Z,102454.70
2018-09-10T21:19:55.122Z,102459.90
2018-09-10T21:22:58.416Z,102466.79
2018-09-10T21:26:01.633Z,102462.21
2018-09-10T21:29:04.901Z,102466.47
2018-09-10T21:32:09.611Z,102466.33
2018-09-10T21:35:12.939Z,102469.40
2018-09-10T21:38:16.225Z,102466.49
2018-09-10T21:41:19.414Z,102469.70
2018-09-10T21:44:22.723Z,102461.82
2018-09-10T21:47:26.080Z,102468.86
2018-09-10T21:50:29.403Z,102470.47
2018-09-10T21:53:32.750Z,102466.70
2018-09-10T21:56:36.455Z,102465.49
2018-09-10T21:59:39.860Z,102466.72
2018-09-10T22:02:43.111Z,102465.88
2018-09-10T22:05:49.938Z,102465.04
2018-09-10T22:08:53.384Z,102458.61
2018-09-10T22:12:03.172Z,102457.61
2018-09-10T22:15:07.192Z,102455.01
2018-09-10T22:18:10.891Z,102448.62
2018-09-10T22:21:14.184Z,102449.98
2018-09-10T22:24:17.596Z,102450.43
2018-09-10T22:27:20.867Z,102457.41
2018-09-10T22:30:24.158Z,102468.62
2018-09-10T22:33:27.444Z,102474.70
2018-09-10T22:36:30.651Z,102465.64
2018-09-10T22:39:33.935Z,102467.49
2018-09-10T22:42:38.052Z,102471.97
2018-09-10T22:45:41.277Z,102470.69
2018-09-10T22:48:44.548Z,102473.64
2018-09-10T22:51:47.851Z,102477.75
2018-09-10T22:54:51.103Z,102483.28
2018-09-10T22:57:54.475Z,102486.90
2018-09-10T23:00:57.744Z,102496.12
2018-09-10T23:04:00.939Z,102500.25
2018-09-10T23:07:04.235Z,102502.01
2018-09-10T23:10:08.500Z,102503.93
2018-09-10T23:13:11.877Z,102508.97
2018-09-10T23:16:15.175Z,102511.87
2018-09-10T23:19:18.450Z,102511.12
2018-09-10T23:22:21.760Z,102510.90
2018-09-10T23:25:25.172Z,102525.48
2018-09-10T23:28:28.444Z,102522.21
2018-09-10T23:31:31.738Z,102522.64
2018-09-10T23:34:34.961Z,102524.45
2018-09-10T23:37:38.875Z,102524.97
2018-09-10T23:40:42.287Z,102527.14
2018-09-10T23:43:46.595Z,102524.43
2018-09-10T23:46:49.862Z,102525.94
2018-09-10T23:49:53.163Z,102525.89
2018-09-10T23:52:56.326Z,102529.49
2018-09-10T23:55:59.657Z,102519.93
2018-09-10T23:59:02.857Z,102520.58
